createdAt,value
2023-04-27T00:01:14.087Z,6.30
2023-04-27T00:03:41.487Z,6.33
2023-04-27T00:06:09.140Z,6.29
2023-04-27T00:08:35.744Z,6.30
2023-04-27T00:11:02.360Z,6.30
2023-04-27T00:13:28.989Z,6.30
2023-04-27T00:15:55.735Z,6.25
2023-04-27T00:18:22.394Z,6.28
2023-04-27T00:20:49.775Z,6.30
2023-04-27T00:23:16.415Z,6.30
2023-04-27T00:25:42.985Z,6.30
2023-04-27T00:28:09.433Z,6.28
2023-04-27T00:30:36.211Z,6.30
2023-04-27T00:33:02.759Z,6.30
2023-04-27T00:35:29.300Z,6.29
2023-04-27T00:37:55.769Z,6.27
2023-04-27T00:40:22.325Z,6.21
2023-04-27T00:42:48.826Z,6.18
2023-04-27T00:45:15.452Z,6.18
2023-04-27T00:47:43.128Z,6.19
2023-04-27T00:50:10.605Z,6.14
2023-04-27T00:52:37.503Z,6.11
2023-04-27T00:55:07.687Z,6.10
2023-04-27T00:57:38.911Z,6.11
2023-04-27T01:00:07.228Z,6.06
2023-04-27T01:02:35.102Z,6.09
2023-04-27T01:05:03.047Z,6.03
2023-04-27T01:07:29.717Z,6.04
2023-04-27T01:09:56.347Z,5.95
2023-04-27T01:12:22.891Z,5.92
2023-04-27T01:14:49.341Z,5.94
2023-04-27T01:17:15.868Z,5.94
2023-04-27T01:19:45.883Z,5.90
2023-04-27T01:22:12.692Z,5.83
2023-04-27T01:24:39.242Z,5.71
2023-04-27T01:27:05.885Z,5.51
2023-04-27T01:29:32.699Z,5.39
2023-04-27T01:31:59.592Z,5.48
2023-04-27T01:34:26.277Z,5.48
2023-04-27T01:36:52.753Z,5.49
2023-04-27T01:39:19.262Z,5.48
2023-04-27T01:41:45.888Z,5.46
2023-04-27T01:44:12.380Z,5.45
2023-04-27T01:46:38.975Z,5.46
2023-04-27T01:49:05.825Z,5.48
2023-04-27T01:51:32.988Z,5.44
2023-04-27T01:53:59.503Z,5.44
2023-04-27T01:56:26.112Z,5.44
2023-04-27T01:58:55.759Z,5.40
2023-04-27T02:01:22.790Z,5.38
2023-04-27T02:03:49.569Z,5.38
2023-04-27T02:06:16.320Z,5.34
2023-04-27T02:08:45.730Z,5.33
2023-04-27T02:11:12.204Z,5.27
2023-04-27T02:13:38.840Z,5.24
2023-04-27T02:16:05.578Z,5.24
2023-04-27T02:18:33.710Z,5.27
2023-04-27T02:21:00.766Z,5.21
2023-04-27T02:23:27.248Z,5.18
2023-04-27T02:25:53.688Z,5.20
2023-04-27T02:28:20.256Z,5.16
2023-04-27T02:30:47.266Z,5.20
2023-04-27T02:33:13.991Z,5.21
2023-04-27T02:35:40.599Z,5.24
2023-04-27T02:38:07.083Z,5.26
2023-04-27T02:40:33.709Z,5.28
2023-04-27T02:43:00.232Z,5.31
2023-04-27T02:45:26.690Z,5.34
2023-04-27T02:47:53.264Z,5.38
2023-04-27T02:50:19.965Z,5.39
2023-04-27T02:52:46.471Z,5.40
2023-04-27T02:55:14.390Z,5.39
2023-04-27T02:57:41.252Z,5.42
2023-04-27T03:00:10.507Z,5.41
2023-04-27T03:02:37.092Z,5.40
2023-04-27T03:05:04.477Z,5.43
2023-04-27T03:07:31.692Z,5.40
2023-04-27T03:09:58.198Z,5.40
2023-04-27T03:12:24.656Z,5.42
2023-04-27T03:14:51.105Z,5.43
2023-04-27T03:17:17.580Z,5.45
2023-04-27T03:19:44.033Z,5.53
2023-04-27T03:22:10.517Z,5.57
2023-04-27T03:24:36.987Z,5.65
2023-04-27T03:27:03.512Z,5.69
2023-04-27T03:29:32.985Z,5.66
2023-04-27T03:31:59.693Z,5.66
2023-04-27T03:34:26.197Z,5.58
2023-04-27T03:36:52.661Z,5.56
2023-04-27T03:39:19.148Z,5.66
2023-04-27T03:41:45.575Z,5.70
2023-04-27T03:44:12.062Z,5.72
2023-04-27T03:46:38.530Z,5.74
2023-04-27T03:49:05.157Z,5.71
2023-04-27T03:51:35.018Z,5.61
2023-04-27T03:54:01.637Z,5.63
2023-04-27T03:56:28.100Z,5.62
2023-04-27T03:58:54.679Z,5.62
2023-04-27T04:01:21.914Z,5.61
2023-04-27T04:03:48.818Z,5.62
2023-04-27T04:06:15.661Z,5.63
2023-04-27T04:08:42.171Z,5.61
2023-04-27T04:11:08.625Z,5.59
2023-04-27T04:13:36.082Z,5.60
2023-04-27T04:16:07.713Z,5.60
2023-04-27T04:18:35.299Z,5.66
2023-04-27T04:21:02.527Z,5.62
2023-04-27T04:23:29.055Z,5.55
2023-04-27T04:25:58.699Z,5.57
2023-04-27T04:28:28.553Z,5.56
2023-04-27T04:30:55.642Z,5.54
2023-04-27T04:33:22.219Z,5.54
2023-04-27T04:35:48.718Z,5.54
2023-04-27T04:38:15.178Z,5.55
2023-04-27T04:40:44.467Z,5.53
2023-04-27T04:43:13.430Z,5.49
2023-04-27T04:45:40.067Z,5.45
2023-04-27T04:48:06.679Z,5.42
2023-04-27T04:50:33.552Z,5.39
2023-04-27T04:53:00.039Z,5.46
2023-04-27T04:55:28.307Z,5.47
2023-04-27T04:57:54.953Z,5.49
2023-04-27T05:00:22.339Z,5.47
2023-04-27T05:02:48.950Z,5.41
2023-04-27T05:05:16.014Z,5.40
2023-04-27T05:07:45.828Z,5.39
2023-04-27T05:10:15.214Z,5.36
2023-04-27T05:12:41.684Z,5.37
2023-04-27T05:15:08.615Z,5.35
2023-04-27T05:17:35.139Z,5.35
2023-04-27T05:20:01.688Z,5.35
2023-04-27T05:22:28.243Z,5.32
2023-04-27T05:24:55.506Z,5.34
2023-04-27T05:27:22.139Z,5.43
2023-04-27T05:29:48.647Z,5.52
2023-04-27T05:32:15.307Z,5.51
2023-04-27T05:34:43.761Z,5.57
2023-04-27T05:37:10.379Z,5.58
2023-04-27T05:39:36.984Z,5.60
2023-04-27T05:42:03.533Z,5.76
2023-04-27T05:44:30.028Z,6.03
2023-04-27T05:46:56.468Z,5.84
2023-04-27T05:49:23.526Z,5.74
2023-04-27T05:51:50.103Z,5.66
2023-04-27T05:54:16.753Z,5.66
2023-04-27T05:56:43.409Z,5.74
2023-04-27T05:59:09.938Z,5.76
2023-04-27T06:01:36.841Z,5.76
2023-04-27T06:04:03.857Z,5.74
2023-04-27T06:06:35.354Z,5.84
2023-04-27T06:09:01.982Z,6.29
2023-04-27T06:11:28.646Z,6.55
2023-04-27T06:13:55.372Z,6.63
2023-04-27T06:16:22.223Z,6.70
2023-04-27T06:18:50.560Z,6.76
2023-04-27T06:21:17.244Z,6.57
2023-04-27T06:23:43.671Z,6.34
2023-04-27T06:26:10.327Z,6.29
2023-04-27T06:28:36.815Z,6.18
2023-04-27T06:31:03.584Z,6.30
2023-04-27T06:33:30.029Z,6.40
2023-04-27T06:35:56.494Z,6.39
2023-04-27T06:38:23.022Z,6.28
2023-04-27T06:40:55.172Z,6.21
2023-04-27T06:43:21.839Z,6.19
2023-04-27T06:45:48.443Z,6.24
2023-04-27T06:48:15.045Z,6.42
2023-04-27T06:50:41.612Z,6.51
2023-04-27T06:53:08.312Z,6.49
2023-04-27T06:55:35.064Z,6.56
2023-04-27T06:58:03.433Z,6.78
2023-04-27T07:00:33.560Z,6.79
2023-04-27T07:03:00.101Z,6.68
2023-04-27T07:05:27.284Z,6.53
2023-04-27T07:07:56.874Z,6.46
2023-04-27T07:10:23.330Z,6.24
2023-04-27T07:12:49.864Z,6.32
2023-04-27T07:15:16.619Z,6.40
2023-04-27T07:17:43.185Z,6.43
2023-04-27T07:20:09.759Z,6.67
2023-04-27T07:22:36.461Z,6.83
2023-04-27T07:25:03.915Z,6.77
2023-04-27T07:27:31.910Z,6.92
2023-04-27T07:29:58.847Z,7.14
2023-04-27T07:32:25.490Z,7.31
2023-04-27T07:34:54.550Z,7.40
2023-04-27T07:37:22.278Z,7.29
2023-04-27T07:39:50.534Z,7.45
2023-04-27T07:42:17.073Z,7.69
2023-04-27T07:44:43.598Z,7.66
2023-04-27T07:47:10.677Z,8.03
2023-04-27T07:49:37.519Z,8.14
2023-04-27T07:52:08.415Z,8.30
2023-04-27T07:54:35.253Z,8.38
2023-04-27T07:57:02.257Z,8.32
2023-04-27T07:59:30.191Z,8.56
2023-04-27T08:02:04.203Z,8.94
2023-04-27T08:04:33.941Z,8.79
2023-04-27T08:07:01.389Z,8.29
2023-04-27T08:09:27.990Z,7.97
2023-04-27T08:11:57.400Z,7.71
2023-04-27T08:14:23.923Z,7.62
2023-04-27T08:16:52.026Z,7.66
2023-04-27T08:19:18.614Z,8.03
2023-04-27T08:21:45.092Z,8.59
2023-04-27T08:24:11.637Z,8.99
2023-04-27T08:26:38.245Z,9.46
2023-04-27T08:29:15.346Z,9.78
2023-04-27T08:31:50.839Z,9.70
2023-04-27T08:34:18.207Z,9.81
2023-04-27T08:36:44.662Z,9.77
2023-04-27T08:39:11.441Z,10.06
2023-04-27T08:41:43.232Z,10.18
2023-04-27T08:44:09.849Z,10.06
2023-04-27T08:46:38.496Z,9.59
2023-04-27T08:49:06.189Z,9.01
2023-04-27T08:51:33.405Z,8.59
2023-04-27T08:54:00.206Z,8.38
2023-04-27T08:56:29.375Z,9.05
2023-04-27T08:58:57.169Z,9.66
2023-04-27T09:01:25.304Z,9.67
2023-04-27T09:04:00.317Z,10.14
2023-04-27T09:06:34.666Z,10.95
2023-04-27T09:09:02.523Z,10.83
2023-04-27T09:11:37.956Z,10.07
2023-04-27T09:14:19.434Z,9.48
2023-04-27T09:16:46.350Z,9.08
2023-04-27T09:19:25.699Z,8.73
2023-04-27T09:22:03.616Z,8.56
2023-04-27T09:24:30.146Z,9.53
2023-04-27T09:26:57.562Z,10.09
2023-04-27T09:29:38.688Z,10.37
2023-04-27T09:32:20.743Z,10.44
2023-04-27T09:34:47.270Z,10.56
2023-04-27T09:37:14.532Z,10.53
2023-04-27T09:39:42.005Z,10.65
2023-04-27T09:42:09.211Z,10.61
2023-04-27T09:44:36.242Z,10.04
2023-04-27T09:47:02.734Z,9.75
2023-04-27T09:49:29.387Z,9.53
2023-04-27T09:51:58.701Z,9.54
2023-04-27T09:54:30.035Z,9.90
2023-04-27T09:57:15.946Z,10.40
2023-04-27T10:00:02.602Z,10.83
2023-04-27T10:02:50.080Z,11.10
2023-04-27T10:05:34.420Z,11.16
2023-04-27T10:08:02.521Z,11.03
2023-04-27T10:10:28.995Z,10.91
2023-04-27T10:13:01.390Z,11.07
2023-04-27T10:15:30.115Z,11.36
2023-04-27T10:18:04.606Z,11.49
2023-04-27T10:20:33.555Z,11.49
2023-04-27T10:23:00.869Z,11.83
2023-04-27T10:25:40.531Z,11.69
2023-04-27T10:28:09.991Z,11.82
2023-04-27T10:30:39.210Z,11.52
2023-04-27T10:33:10.932Z,11.51
2023-04-27T10:35:45.958Z,10.69
2023-04-27T10:38:17.468Z,11.02
2023-04-27T10:40:45.597Z,11.51
2023-04-27T10:43:14.254Z,11.68
2023-04-27T10:45:41.924Z,11.57
2023-04-27T10:48:08.916Z,11.65
2023-04-27T10:50:35.703Z,11.61
2023-04-27T10:53:07.752Z,11.56
2023-04-27T10:55:35.547Z,11.55
2023-04-27T10:58:02.589Z,11.63
2023-04-27T11:00:38.692Z,11.68
2023-04-27T11:03:16.810Z,12.09
2023-04-27T11:05:45.284Z,12.11
2023-04-27T11:08:14.190Z,12.36
2023-04-27T11:10:44.503Z,12.11
2023-04-27T11:13:13.334Z,12.07
2023-04-27T11:15:58.088Z,12.16
2023-04-27T11:18:36.866Z,12.11
2023-04-27T11:21:15.322Z,12.04
2023-04-27T11:23:42.761Z,11.98
2023-04-27T11:26:19.800Z,11.98
2023-04-27T11:28:57.578Z,12.16
2023-04-27T11:31:27.264Z,11.92
2023-04-27T11:33:56.092Z,12.00
2023-04-27T11:36:23.800Z,12.13
2023-04-27T11:38:50.441Z,12.17
2023-04-27T11:41:17.635Z,12.04
2023-04-27T11:43:49.512Z,11.95
2023-04-27T11:46:21.321Z,12.13
2023-04-27T11:48:47.903Z,12.20
2023-04-27T11:51:14.456Z,12.16
2023-04-27T11:53:42.373Z,12.20
2023-04-27T11:56:11.025Z,12.06
2023-04-27T11:58:38.768Z,12.08
2023-04-27T12:01:06.806Z,12.12
2023-04-27T12:03:33.960Z,11.90
2023-04-27T12:06:15.839Z,11.96
2023-04-27T12:08:47.343Z,12.19
2023-04-27T12:11:13.822Z,12.25
2023-04-27T12:13:40.761Z,12.19
2023-04-27T12:16:07.466Z,12.53
2023-04-27T12:18:34.072Z,12.88
2023-04-27T12:21:03.110Z,12.97
2023-04-27T12:23:30.053Z,12.68
2023-04-27T12:25:56.536Z,12.57
2023-04-27T12:28:23.464Z,12.48
2023-04-27T12:30:50.121Z,12.52
2023-04-27T12:33:17.283Z,12.65
2023-04-27T12:35:43.825Z,12.48
2023-04-27T12:38:10.332Z,12.20
2023-04-27T12:40:39.579Z,12.11
2023-04-27T12:43:08.287Z,12.12
2023-04-27T12:45:34.742Z,12.12
2023-04-27T12:48:03.488Z,12.07
2023-04-27T12:50:32.689Z,11.83
2023-04-27T12:53:01.389Z,11.98
2023-04-27T12:57:58.266Z,11.98
2023-04-27T13:00:27.748Z,12.29
2023-04-27T13:02:56.601Z,12.40
2023-04-27T13:05:23.439Z,12.28
2023-04-27T13:07:49.928Z,12.08
2023-04-27T13:10:16.516Z,11.99
2023-04-27T13:12:43.058Z,12.23
2023-04-27T13:15:10.170Z,12.69
2023-04-27T13:17:41.701Z,12.38
2023-04-27T13:20:10.772Z,12.27
2023-04-27T13:22:37.282Z,12.15
2023-04-27T13:25:06.002Z,12.52
2023-04-27T13:27:32.479Z,12.50
2023-04-27T13:29:58.967Z,12.36
2023-04-27T13:32:28.256Z,12.21
2023-04-27T13:34:54.767Z,12.16
2023-04-27T13:37:21.730Z,12.11
2023-04-27T13:39:48.214Z,12.40
2023-04-27T13:42:14.664Z,12.50
2023-04-27T13:44:41.393Z,12.40
2023-04-27T13:47:08.099Z,12.32
2023-04-27T13:49:34.713Z,12.43
2023-04-27T13:52:01.378Z,12.34
2023-04-27T13:54:28.681Z,12.16
2023-04-27T13:56:55.198Z,12.06
2023-04-27T13:59:21.784Z,12.12
2023-04-27T14:01:48.366Z,12.27
2023-04-27T14:04:14.955Z,12.06
2023-04-27T14:06:41.604Z,12.13
2023-04-27T14:09:09.242Z,12.00
2023-04-27T14:11:48.602Z,11.98
2023-04-27T14:14:22.759Z,11.88
2023-04-27T14:16:51.405Z,11.66
2023-04-27T14:19:20.219Z,11.82
2023-04-27T14:21:47.736Z,11.69
2023-04-27T14:24:14.276Z,11.90
2023-04-27T14:26:43.973Z,11.81
2023-04-27T14:29:11.601Z,11.69
2023-04-27T14:31:39.343Z,11.56
2023-04-27T14:34:06.918Z,11.74
2023-04-27T14:36:33.962Z,11.67
2023-04-27T14:39:01.184Z,11.73
2023-04-27T14:41:28.457Z,11.59
2023-04-27T14:43:55.026Z,11.68
2023-04-27T14:46:22.072Z,11.62
2023-04-27T14:48:49.612Z,11.58
2023-04-27T14:51:16.757Z,11.36
2023-04-27T14:53:43.971Z,11.47
2023-04-27T14:56:11.122Z,11.68
2023-04-27T14:58:37.634Z,11.41
2023-04-27T15:01:04.208Z,11.36
2023-04-27T15:03:32.691Z,11.33
2023-04-27T15:06:00.198Z,11.40
2023-04-27T15:08:26.895Z,11.47
2023-04-27T15:10:59.665Z,11.37
2023-04-27T15:13:29.223Z,11.28
2023-04-27T15:15:57.378Z,11.52
2023-04-27T15:18:25.083Z,11.52
2023-04-27T15:20:55.906Z,11.15
2023-04-27T15:23:23.144Z,11.15
2023-04-27T15:25:51.844Z,11.12
2023-04-27T15:28:18.582Z,11.25
2023-04-27T15:30:45.711Z,11.20
2023-04-27T15:33:15.815Z,11.05
2023-04-27T15:35:42.713Z,11.07
2023-04-27T15:38:14.988Z,10.95
2023-04-27T15:41:01.710Z,10.94
2023-04-27T15:43:28.184Z,11.01
2023-04-27T15:45:54.929Z,10.99
2023-04-27T15:48:21.392Z,10.96
2023-04-27T15:50:47.847Z,10.96
2023-04-27T15:53:14.305Z,10.87
2023-04-27T15:55:40.832Z,10.77
2023-04-27T15:58:10.544Z,10.73
2023-04-27T16:00:37.142Z,10.74
2023-04-27T16:03:04.396Z,10.74
2023-04-27T16:05:31.181Z,10.77
2023-04-27T16:07:57.697Z,10.79
2023-04-27T16:10:24.152Z,10.82
2023-04-27T16:12:50.624Z,10.80
2023-04-27T16:15:17.319Z,10.77
2023-04-27T16:17:43.818Z,10.72
2023-04-27T16:20:11.783Z,10.71
2023-04-27T16:22:38.313Z,10.62
2023-04-27T16:25:10.181Z,10.56
2023-04-27T16:27:37.998Z,10.52
2023-04-27T16:30:05.641Z,10.58
2023-04-27T16:32:34.500Z,10.60
2023-04-27T16:35:01.945Z,10.58
2023-04-27T16:37:28.425Z,10.53
2023-04-27T16:39:54.946Z,10.47
2023-04-27T16:42:24.676Z,10.43
2023-04-27T16:44:51.459Z,10.43
2023-04-27T16:47:18.116Z,10.44
2023-04-27T16:49:44.759Z,10.44
2023-04-27T16:52:11.877Z,10.44
2023-04-27T16:54:38.357Z,10.44
2023-04-27T16:57:04.924Z,10.47
2023-04-27T16:59:31.467Z,10.43
2023-04-27T17:02:03.739Z,10.41
2023-04-27T17:04:39.997Z,10.42
2023-04-27T17:07:07.374Z,10.45
2023-04-27T17:09:36.568Z,10.42
2023-04-27T17:12:04.062Z,10.40
2023-04-27T17:14:30.681Z,10.36
2023-04-27T17:16:57.175Z,10.31
2023-04-27T17:19:24.193Z,10.26
2023-04-27T17:21:50.815Z,10.22
2023-04-27T17:24:17.299Z,10.21
2023-04-27T17:26:43.875Z,10.21
2023-04-27T17:29:10.549Z,10.19
2023-04-27T17:31:37.178Z,10.12
2023-04-27T17:34:06.629Z,10.09
2023-04-27T17:36:33.111Z,10.00
2023-04-27T17:39:01.220Z,9.93
2023-04-27T17:41:28.544Z,9.85
2023-04-27T17:43:55.106Z,9.83
2023-04-27T17:46:21.588Z,9.79
2023-04-27T17:48:48.149Z,9.79
2023-04-27T17:51:15.687Z,9.74
2023-04-27T17:53:42.713Z,9.66
2023-04-27T17:56:09.279Z,9.62
2023-04-27T17:58:36.260Z,9.61
2023-04-27T18:01:02.770Z,9.56
2023-04-27T18:03:29.621Z,9.54
2023-04-27T18:05:56.241Z,9.46
2023-04-27T18:08:22.789Z,9.43
2023-04-27T18:10:49.354Z,9.41
2023-04-27T18:13:18.867Z,9.39
2023-04-27T18:15:45.677Z,9.33
2023-04-27T18:18:16.706Z,9.34
2023-04-27T18:20:44.857Z,9.34
2023-04-27T18:23:11.374Z,9.31
2023-04-27T18:25:37.861Z,9.20
2023-04-27T18:28:05.833Z,9.21
2023-04-27T18:30:33.037Z,9.19
2023-04-27T18:32:59.521Z,9.06
2023-04-27T18:35:26.002Z,9.11
2023-04-27T18:37:52.503Z,9.03
2023-04-27T18:40:20.995Z,8.94
2023-04-27T18:42:48.118Z,8.96
2023-04-27T18:45:16.154Z,8.91
2023-04-27T18:47:42.671Z,8.82
2023-04-27T18:50:10.788Z,8.76
2023-04-27T18:52:37.212Z,8.72
2023-04-27T18:55:04.047Z,8.72
2023-04-27T18:57:30.643Z,8.70
2023-04-27T18:59:57.244Z,8.68
2023-04-27T19:02:25.753Z,8.64
2023-04-27T19:05:01.669Z,8.51
2023-04-27T19:07:37.249Z,8.43
2023-04-27T19:10:04.091Z,8.43
2023-04-27T19:12:31.330Z,8.43
2023-04-27T19:14:57.822Z,8.37
2023-04-27T19:17:24.513Z,8.23
2023-04-27T19:19:51.131Z,8.20
2023-04-27T19:22:17.642Z,8.16
2023-04-27T19:24:44.102Z,8.17
2023-04-27T19:27:11.812Z,8.12
2023-04-27T19:29:50.232Z,8.08
2023-04-27T19:32:16.930Z,8.14
2023-04-27T19:34:43.369Z,8.11
2023-04-27T19:37:09.870Z,8.04
2023-04-27T19:39:36.415Z,8.02
2023-04-27T19:42:02.938Z,8.07
2023-04-27T19:44:29.401Z,8.12
2023-04-27T19:46:55.916Z,8.18
2023-04-27T19:49:22.421Z,8.24
2023-04-27T19:51:48.896Z,8.20
2023-04-27T19:54:15.525Z,8.18
2023-04-27T19:56:42.431Z,8.08
2023-04-27T19:59:12.196Z,8.02
2023-04-27T20:01:38.794Z,7.96
2023-04-27T20:04:05.643Z,7.90
2023-04-27T20:06:33.279Z,7.81
2023-04-27T20:08:59.844Z,7.76
2023-04-27T20:11:26.816Z,7.71
2023-04-27T20:13:53.297Z,7.68
2023-04-27T20:16:19.905Z,7.73
2023-04-27T20:18:46.546Z,7.87
2023-04-27T20:21:13.096Z,8.02
2023-04-27T20:23:39.543Z,8.10
2023-04-27T20:26:09.063Z,8.15
2023-04-27T20:28:35.594Z,8.18
2023-04-27T20:31:05.207Z,8.20
2023-04-27T20:33:35.140Z,8.20
2023-04-27T20:36:14.294Z,8.24
2023-04-27T20:38:44.606Z,8.25
2023-04-27T20:41:14.689Z,8.25
2023-04-27T20:43:41.180Z,8.24
2023-04-27T20:46:08.035Z,8.24
2023-04-27T20:48:34.669Z,8.22
2023-04-27T20:51:01.344Z,8.24
2023-04-27T20:53:31.516Z,8.24
2023-04-27T20:55:57.987Z,8.25
2023-04-27T20:58:24.803Z,8.23
2023-04-27T21:00:52.584Z,8.20
2023-04-27T21:03:19.388Z,8.19
2023-04-27T21:05:46.573Z,8.17
2023-04-27T21:08:13.074Z,8.15
2023-04-27T21:10:39.594Z,8.18
2023-04-27T21:13:06.080Z,8.18
2023-04-27T21:15:36.201Z,8.13
2023-04-27T21:18:05.038Z,8.13
2023-04-27T21:20:33.255Z,8.13
2023-04-27T21:22:59.853Z,8.11
2023-04-27T21:25:28.294Z,8.10
2023-04-27T21:27:54.879Z,8.10
2023-04-27T21:30:21.439Z,8.12
2023-04-27T21:32:47.958Z,8.11
2023-04-27T21:35:17.919Z,8.15
2023-04-27T21:37:44.399Z,8.17
2023-04-27T21:40:11.288Z,8.21
2023-04-27T21:42:38.055Z,8.23
2023-04-27T21:45:04.878Z,8.23
2023-04-27T21:47:31.438Z,8.18
2023-04-27T21:49:57.928Z,8.19
2023-04-27T21:52:24.473Z,8.17
2023-04-27T21:54:50.983Z,8.17
2023-04-27T21:57:19.464Z,8.15
2023-04-27T21:59:46.568Z,8.14
2023-04-27T22:02:13.618Z,8.15
2023-04-27T22:04:40.381Z,8.14
2023-04-27T22:07:10.341Z,8.13
2023-04-27T22:09:36.945Z,8.09
2023-04-27T22:12:06.980Z,8.02
2023-04-27T22:14:36.136Z,7.98
2023-04-27T22:17:11.764Z,7.99
2023-04-27T22:19:38.412Z,7.98
2023-04-27T22:22:05.050Z,7.96
2023-04-27T22:24:31.565Z,7.95
2023-04-27T22:26:58.026Z,7.91
2023-04-27T22:29:24.592Z,7.90
2023-04-27T22:31:52.029Z,7.85
2023-04-27T22:34:18.774Z,7.85
2023-04-27T22:36:45.384Z,7.78
2023-04-27T22:39:12.162Z,7.77
2023-04-27T22:41:38.684Z,7.72
2023-04-27T22:44:05.234Z,7.70
2023-04-27T22:46:31.807Z,7.69
2023-04-27T22:49:01.474Z,7.65
2023-04-27T22:51:27.928Z,7.64
2023-04-27T22:53:54.639Z,7.63
2023-04-27T22:56:21.170Z,7.60
2023-04-27T22:58:47.701Z,7.51
2023-04-27T23:01:18.427Z,7.49
2023-04-27T23:03:45.108Z,7.38
2023-04-27T23:06:14.916Z,7.33
2023-04-27T23:08:49.152Z,7.38
2023-04-27T23:11:19.358Z,7.32
2023-04-27T23:13:50.227Z,7.14
2023-04-27T23:16:19.711Z,7.01
2023-04-27T23:18:46.823Z,6.97
2023-04-27T23:21:13.305Z,6.81
2023-04-27T23:23:42.435Z,6.76
2023-04-27T23:26:16.346Z,6.77
2023-04-27T23:28:46.055Z,6.78
2023-04-27T23:31:12.778Z,6.83
2023-04-27T23:33:39.286Z,6.91
2023-04-27T23:36:06.433Z,6.95
2023-04-27T23:38:33.144Z,6.98
2023-04-27T23:40:59.714Z,6.97
2023-04-27T23:43:27.491Z,6.90
2023-04-27T23:45:54.109Z,6.93
2023-04-27T23:48:20.630Z,6.94
2023-04-27T23:50:47.138Z,6.87
2023-04-27T23:53:13.599Z,6.82
2023-04-27T23:55:40.164Z,6.83
2023-04-27T23:58:09.398Z,6.89
